Huvudsida
METAR-TAF:

METAR-TAF

Flygplatser :

Båtsfjords flygplats

Båtsfjords, Norge

latitud: 70-38N, longitud: 029-44E, höjd: 10 m

Aktuellt väderrapport

Denna rapport gjordes för 1 timme och 9 minuter sedan, klockan 21:50 UTC
Vind 10 kt från nord
Temperatur -4°C
Fuktighet 93%
Tryck 1015 hPa
Sikt 10 km eller mer
Få moln på en höjd av 1000 ft
Spridda moln på en höjd av 1800 ft
Brutna moln på en höjd av 3500 ft
lätta snöbyar

METAR: ENBS 232150Z 01010KT 9999 -SHSN FEW010 SCT018 BKN035 M04/M05 Q1015

Tid: 23:59 (22:59 UTC)


TAF: saknas

Aktuella väderrapporter och prognoser från 4000 flygplatser (METAR- och TAF-rapporter).

De tillgängliga stationerna syns som gula och röda prickar på kartan.

För musen över prickarna för att se namnen på stationerna.

Klicka sedan för att få väderrapporter och prognoser.

För att ändra kartan: Klicka på de gröna knapparna med ett svart kors på för att zooma in; den gröna knappen med ett streck på för att zooma ut; eller på de gröna pilarna för angränsande kartor.


METAR-TAF: